createdAt,value
2022-08-31T00:00:36.848Z,6.20
2022-08-31T00:01:36.865Z,6.20
2022-08-31T00:02:36.962Z,7.70
2022-08-31T00:03:36.903Z,6.10
2022-08-31T00:04:36.980Z,6.40
2022-08-31T00:05:36.935Z,7.50
2022-08-31T00:06:36.943Z,7.00
2022-08-31T00:07:36.966Z,5.60
2022-08-31T00:08:36.972Z,5.60
2022-08-31T00:09:37.005Z,5.20
2022-08-31T00:10:37.268Z,5.30
2022-08-31T00:11:37.994Z,7.00
2022-08-31T00:12:37.035Z,5.20
2022-08-31T00:13:37.051Z,6.30
2022-08-31T00:14:37.066Z,8.00
2022-08-31T00:15:37.083Z,9.40
2022-08-31T00:16:37.154Z,5.80
2022-08-31T00:17:37.113Z,6.00
2022-08-31T00:18:37.131Z,6.00
2022-08-31T00:19:37.148Z,7.30
2022-08-31T00:20:37.160Z,7.40
2022-08-31T00:21:37.173Z,6.20
2022-08-31T00:22:37.191Z,6.40
2022-08-31T00:23:37.205Z,5.20
2022-08-31T00:24:37.222Z,7.30
2022-08-31T00:25:37.241Z,5.90
2022-08-31T00:26:37.253Z,5.10
2022-08-31T00:27:37.272Z,6.10
2022-08-31T00:28:37.287Z,7.70
2022-08-31T00:29:37.301Z,6.00
2022-08-31T00:30:37.319Z,6.90
2022-08-31T00:31:37.457Z,5.80
2022-08-31T00:32:37.349Z,6.10
2022-08-31T00:33:37.364Z,7.20
2022-08-31T00:34:37.377Z,7.10
2022-08-31T00:35:37.396Z,6.30
2022-08-31T00:36:37.411Z,5.50
2022-08-31T00:37:37.426Z,7.10
2022-08-31T00:38:37.495Z,6.20
2022-08-31T00:39:37.469Z,6.60
2022-08-31T00:40:44.208Z,7.90
2022-08-31T00:41:37.486Z,6.50
2022-08-31T00:42:37.505Z,8.10
2022-08-31T00:43:37.520Z,7.40
2022-08-31T00:44:37.533Z,9.10
2022-08-31T00:45:37.619Z,7.10
2022-08-31T00:46:37.570Z,8.50
2022-08-31T00:47:37.584Z,6.90
2022-08-31T00:48:37.598Z,6.70
2022-08-31T00:49:37.617Z,6.90
2022-08-31T00:50:37.731Z,6.10
2022-08-31T00:51:37.647Z,5.90
2022-08-31T00:52:38.145Z,6.30
2022-08-31T00:53:37.682Z,5.10
2022-08-31T00:54:37.690Z,6.80
2022-08-31T00:55:37.711Z,7.10
2022-08-31T00:56:37.718Z,6.70
2022-08-31T00:57:37.737Z,5.60
2022-08-31T00:58:37.754Z,6.10
2022-08-31T00:59:37.765Z,6.70
2022-08-31T01:00:37.812Z,6.50
2022-08-31T01:01:37.876Z,6.10
2022-08-31T01:02:37.863Z,5.60
2022-08-31T01:03:37.835Z,7.80
2022-08-31T01:04:37.849Z,6.60
2022-08-31T01:05:37.867Z,7.70
2022-08-31T01:06:37.878Z,7.90
2022-08-31T01:07:37.889Z,6.70
2022-08-31T01:08:37.905Z,6.30
2022-08-31T01:09:37.919Z,6.40
2022-08-31T01:10:37.932Z,6.00
2022-08-31T01:11:37.956Z,6.00
2022-08-31T01:12:37.966Z,5.90
2022-08-31T01:13:37.982Z,6.30
2022-08-31T01:14:37.997Z,5.80
2022-08-31T01:15:38.016Z,7.00
2022-08-31T01:16:38.082Z,5.30
2022-08-31T01:17:38.043Z,5.90
2022-08-31T01:18:38.058Z,5.70
2022-08-31T01:19:38.075Z,6.20
2022-08-31T01:20:38.091Z,7.80
2022-08-31T01:21:38.103Z,7.80
2022-08-31T01:22:38.122Z,9.70
2022-08-31T01:23:38.135Z,6.20
2022-08-31T01:24:38.149Z,7.80
2022-08-31T01:25:38.163Z,8.20
2022-08-31T01:26:38.177Z,6.90
2022-08-31T01:27:38.193Z,6.00
2022-08-31T01:28:38.209Z,6.00
2022-08-31T01:29:38.225Z,5.50
2022-08-31T01:30:38.244Z,5.10
2022-08-31T01:31:38.345Z,5.00
2022-08-31T01:32:38.272Z,6.60
2022-08-31T01:33:38.288Z,6.10
2022-08-31T01:34:38.302Z,7.50
2022-08-31T01:35:38.318Z,5.80
2022-08-31T01:36:38.335Z,6.30
2022-08-31T01:37:38.350Z,6.40
2022-08-31T01:38:38.378Z,7.20
2022-08-31T01:39:38.379Z,6.30
2022-08-31T01:40:38.464Z,6.20
2022-08-31T01:41:38.412Z,6.40
2022-08-31T01:42:38.427Z,8.60
2022-08-31T01:43:38.440Z,6.60
2022-08-31T01:44:38.458Z,6.40
2022-08-31T01:45:38.470Z,7.40
2022-08-31T01:46:38.569Z,8.00
2022-08-31T01:47:38.501Z,8.10
2022-08-31T01:48:41.437Z,6.70
2022-08-31T01:49:38.541Z,6.50
2022-08-31T01:50:38.551Z,8.90
2022-08-31T01:51:38.664Z,7.70
2022-08-31T01:52:38.579Z,6.70
2022-08-31T01:53:38.592Z,5.30
2022-08-31T01:54:38.609Z,6.70
2022-08-31T01:55:38.624Z,5.50
2022-08-31T01:56:38.641Z,5.40
2022-08-31T01:57:38.653Z,4.90
2022-08-31T01:58:38.673Z,7.40
2022-08-31T01:59:38.686Z,6.80
2022-08-31T02:00:38.774Z,5.80
2022-08-31T02:01:38.905Z,6.10
2022-08-31T02:02:38.787Z,6.10
2022-08-31T02:03:38.751Z,5.60
2022-08-31T02:04:38.765Z,6.00
2022-08-31T02:05:38.774Z,7.00
2022-08-31T02:06:38.794Z,7.10
2022-08-31T02:07:38.807Z,7.40
2022-08-31T02:08:38.831Z,7.60
2022-08-31T02:09:38.842Z,7.00
2022-08-31T02:10:38.851Z,6.20
2022-08-31T02:11:38.866Z,7.30
2022-08-31T02:12:38.884Z,5.50
2022-08-31T02:13:38.897Z,6.50
2022-08-31T02:14:38.915Z,7.00
2022-08-31T02:15:38.932Z,5.40
2022-08-31T02:16:39.016Z,6.70
2022-08-31T02:17:38.961Z,6.50
2022-08-31T02:18:38.973Z,5.70
2022-08-31T02:19:38.998Z,6.00
2022-08-31T02:20:39.008Z,10.20
2022-08-31T02:21:39.017Z,5.50
2022-08-31T02:22:39.039Z,6.20
2022-08-31T02:23:39.080Z,6.20
2022-08-31T02:24:39.068Z,6.60
2022-08-31T02:25:39.090Z,5.90
2022-08-31T02:26:39.135Z,6.20
2022-08-31T02:27:39.125Z,8.90
2022-08-31T02:28:39.125Z,5.30
2022-08-31T02:29:39.138Z,7.10
2022-08-31T02:30:39.152Z,6.60
2022-08-31T02:31:39.267Z,7.40
2022-08-31T02:32:39.184Z,6.90
2022-08-31T02:33:39.200Z,6.40
2022-08-31T02:34:39.216Z,5.30
2022-08-31T02:35:39.226Z,6.50
2022-08-31T02:36:39.244Z,5.90
2022-08-31T02:37:39.257Z,5.70
2022-08-31T02:38:39.276Z,6.30
2022-08-31T02:39:39.291Z,6.50
2022-08-31T02:40:39.462Z,5.90
2022-08-31T02:41:39.318Z,9.10
2022-08-31T02:42:53.732Z,8.50
2022-08-31T02:43:39.352Z,8.50
2022-08-31T02:44:39.362Z,7.90
2022-08-31T02:45:39.383Z,7.00
2022-08-31T02:46:39.499Z,6.80
2022-08-31T02:47:39.412Z,6.70
2022-08-31T02:48:39.428Z,6.00
2022-08-31T02:49:39.440Z,5.90
2022-08-31T02:50:39.459Z,5.40
2022-08-31T02:51:39.470Z,5.50
2022-08-31T02:52:39.485Z,6.60
2022-08-31T02:53:39.506Z,6.00
2022-08-31T02:54:39.522Z,6.10
2022-08-31T02:55:39.534Z,5.90
2022-08-31T02:56:39.647Z,6.90
2022-08-31T02:57:39.558Z,6.00
2022-08-31T02:58:39.579Z,6.60
2022-08-31T02:59:39.594Z,5.60
2022-08-31T03:00:39.619Z,5.30
2022-08-31T03:01:39.663Z,6.30
2022-08-31T03:02:39.663Z,5.80
2022-08-31T03:03:39.656Z,6.50
2022-08-31T03:04:39.672Z,5.90
2022-08-31T03:05:39.690Z,5.90
2022-08-31T03:06:39.699Z,5.50
2022-08-31T03:07:39.715Z,5.80
2022-08-31T03:08:39.734Z,6.00
2022-08-31T03:09:39.749Z,5.70
2022-08-31T03:10:39.761Z,6.60
2022-08-31T03:11:39.780Z,6.60
2022-08-31T03:12:39.788Z,6.00
2022-08-31T03:13:39.817Z,5.30
2022-08-31T03:14:39.822Z,6.80
2022-08-31T03:15:39.867Z,5.10
2022-08-31T03:16:39.848Z,7.80
2022-08-31T03:17:39.865Z,5.10
2022-08-31T03:18:39.882Z,5.70
2022-08-31T03:19:39.897Z,5.60
2022-08-31T03:20:39.914Z,5.40
2022-08-31T03:21:39.932Z,6.40
2022-08-31T03:22:39.954Z,6.60
2022-08-31T03:23:39.969Z,5.10
2022-08-31T03:24:39.970Z,5.80
2022-08-31T03:25:40.005Z,7.30
2022-08-31T03:26:40.003Z,5.90
2022-08-31T03:27:40.023Z,5.40
2022-08-31T03:28:40.032Z,6.10
2022-08-31T03:29:40.049Z,7.10
2022-08-31T03:30:40.204Z,8.30
2022-08-31T03:31:40.143Z,7.20
2022-08-31T03:32:40.097Z,5.50
2022-08-31T03:33:40.116Z,5.10
2022-08-31T03:34:40.129Z,7.20
2022-08-31T03:35:40.142Z,6.00
2022-08-31T03:36:40.152Z,6.00
2022-08-31T03:37:40.171Z,6.10
2022-08-31T03:38:40.184Z,5.40
2022-08-31T03:39:40.301Z,7.70
2022-08-31T03:40:40.279Z,6.70
2022-08-31T03:41:40.234Z,6.50
2022-08-31T03:42:40.247Z,5.60
2022-08-31T03:43:40.266Z,5.40
2022-08-31T03:44:40.277Z,5.90
2022-08-31T03:45:40.291Z,8.30
2022-08-31T03:46:40.345Z,6.10
2022-08-31T03:47:44.559Z,6.20
2022-08-31T03:48:40.337Z,6.00
2022-08-31T03:49:40.350Z,6.60
2022-08-31T03:50:40.367Z,5.30
2022-08-31T03:51:40.383Z,9.40
2022-08-31T03:52:40.395Z,6.60
2022-08-31T03:53:40.416Z,7.70
2022-08-31T03:54:40.427Z,6.20
2022-08-31T03:55:40.443Z,6.30
2022-08-31T03:56:40.456Z,5.40
2022-08-31T03:57:40.478Z,5.60
2022-08-31T03:58:40.490Z,5.90
2022-08-31T03:59:40.503Z,5.80
2022-08-31T04:00:40.514Z,6.90
2022-08-31T04:01:40.567Z,7.90
2022-08-31T04:02:40.641Z,6.00
2022-08-31T04:03:40.562Z,6.40
2022-08-31T04:04:40.577Z,8.60
2022-08-31T04:05:40.592Z,6.50
2022-08-31T04:06:40.615Z,5.40
2022-08-31T04:07:42.767Z,6.90
2022-08-31T04:08:40.640Z,6.20
2022-08-31T04:09:40.750Z,5.80
2022-08-31T04:10:40.673Z,5.60
2022-08-31T04:11:44.362Z,6.00
2022-08-31T04:12:40.701Z,7.80
2022-08-31T04:13:40.726Z,5.70
2022-08-31T04:14:40.775Z,5.80
2022-08-31T04:15:40.829Z,4.90
2022-08-31T04:16:40.757Z,5.60
2022-08-31T04:17:40.769Z,6.20
2022-08-31T04:18:40.789Z,6.00
2022-08-31T04:19:40.804Z,8.90
2022-08-31T04:20:40.817Z,9.90
2022-08-31T04:21:40.835Z,5.80
2022-08-31T04:22:40.844Z,6.30
2022-08-31T04:23:40.861Z,5.40
2022-08-31T04:24:40.874Z,5.00
2022-08-31T04:25:40.993Z,6.90
2022-08-31T04:26:40.973Z,5.80
2022-08-31T04:27:40.925Z,5.20
2022-08-31T04:28:40.949Z,6.70
2022-08-31T04:29:40.991Z,6.20
2022-08-31T04:30:41.051Z,5.40
2022-08-31T04:31:40.988Z,5.70
2022-08-31T04:32:40.992Z,7.40
2022-08-31T04:33:41.011Z,6.00
2022-08-31T04:34:41.028Z,5.20
2022-08-31T04:35:41.042Z,6.70
2022-08-31T04:36:41.062Z,5.50
2022-08-31T04:37:45.871Z,5.80
2022-08-31T04:38:41.092Z,6.50
2022-08-31T04:39:51.002Z,6.60
2022-08-31T04:40:41.173Z,6.60
2022-08-31T04:41:41.130Z,7.20
2022-08-31T04:42:41.148Z,6.20
2022-08-31T04:43:41.159Z,6.10
2022-08-31T04:44:41.177Z,7.70
2022-08-31T04:45:41.281Z,5.80
2022-08-31T04:46:41.211Z,5.80
2022-08-31T04:47:41.218Z,7.00
2022-08-31T04:48:41.234Z,7.50
2022-08-31T04:49:41.246Z,7.80
2022-08-31T04:50:42.943Z,7.50
2022-08-31T04:51:41.278Z,7.20
2022-08-31T04:52:41.295Z,6.70
2022-08-31T04:53:41.316Z,6.70
2022-08-31T04:54:41.326Z,7.90
2022-08-31T04:55:41.355Z,7.20
2022-08-31T04:56:41.355Z,7.20
2022-08-31T04:57:41.372Z,8.10
2022-08-31T04:58:41.385Z,8.30
2022-08-31T04:59:41.399Z,7.00
2022-08-31T05:00:41.413Z,7.80
2022-08-31T05:01:42.826Z,7.40
2022-08-31T05:02:41.518Z,9.00
2022-08-31T05:03:41.458Z,7.70
2022-08-31T05:04:41.470Z,7.20
2022-08-31T05:05:41.487Z,6.50
2022-08-31T05:06:41.506Z,6.20
2022-08-31T05:07:41.513Z,6.90
2022-08-31T05:08:41.528Z,8.90
2022-08-31T05:09:41.545Z,7.30
2022-08-31T05:10:41.561Z,7.40
2022-08-31T05:11:41.576Z,6.30
2022-08-31T05:12:41.590Z,5.80
2022-08-31T05:13:41.604Z,6.90
2022-08-31T05:14:41.623Z,7.90
2022-08-31T05:15:41.676Z,6.90
2022-08-31T05:16:41.660Z,5.80
2022-08-31T05:17:41.659Z,6.30
2022-08-31T05:18:41.681Z,8.40
2022-08-31T05:19:41.694Z,7.70
2022-08-31T05:20:41.713Z,7.20
2022-08-31T05:21:41.723Z,7.80
2022-08-31T05:22:41.739Z,7.50
2022-08-31T05:23:41.752Z,6.90
2022-08-31T05:24:41.767Z,9.40
2022-08-31T05:25:41.785Z,7.70
2022-08-31T05:26:42.232Z,6.40
2022-08-31T05:27:41.807Z,8.70
2022-08-31T05:28:41.821Z,8.80
2022-08-31T05:29:41.837Z,7.70
2022-08-31T05:30:41.886Z,6.40
2022-08-31T05:31:41.867Z,6.50
2022-08-31T05:32:41.877Z,8.30
2022-08-31T05:33:41.999Z,6.00
2022-08-31T05:34:41.910Z,7.40
2022-08-31T05:35:41.922Z,6.30
2022-08-31T05:36:41.940Z,6.40
2022-08-31T05:37:41.955Z,6.70
2022-08-31T05:38:41.974Z,8.10
2022-08-31T05:39:41.988Z,6.60
2022-08-31T05:40:42.116Z,6.80
2022-08-31T05:41:42.016Z,6.70
2022-08-31T05:42:42.024Z,6.80
2022-08-31T05:43:42.041Z,6.60
2022-08-31T05:44:42.055Z,7.50
2022-08-31T05:45:42.070Z,7.30
2022-08-31T05:46:42.241Z,11.50
2022-08-31T05:47:42.104Z,9.10
2022-08-31T05:48:42.115Z,6.60
2022-08-31T05:49:42.128Z,6.70
2022-08-31T05:50:42.141Z,7.00
2022-08-31T05:51:42.161Z,6.70
2022-08-31T05:52:42.170Z,6.90
2022-08-31T05:53:42.287Z,7.50
2022-08-31T05:54:42.201Z,5.60
2022-08-31T05:55:42.222Z,7.50
2022-08-31T05:56:42.961Z,8.20
2022-08-31T05:57:42.252Z,5.80
2022-08-31T05:58:42.263Z,6.90
2022-08-31T05:59:42.275Z,5.90
2022-08-31T06:00:42.288Z,6.60
2022-08-31T06:01:42.396Z,7.40
2022-08-31T06:02:42.319Z,6.60
2022-08-31T06:03:42.331Z,6.30
2022-08-31T06:04:42.398Z,6.20
2022-08-31T06:05:42.429Z,7.50
2022-08-31T06:06:42.374Z,5.60
2022-08-31T06:07:42.394Z,6.30
2022-08-31T06:08:42.418Z,6.20
2022-08-31T06:09:42.418Z,5.60
2022-08-31T06:10:42.429Z,7.70
2022-08-31T06:11:42.486Z,6.70
2022-08-31T06:12:42.460Z,6.80
2022-08-31T06:13:42.478Z,6.20
2022-08-31T06:14:45.612Z,8.30
2022-08-31T06:15:42.825Z,6.60
2022-08-31T06:16:42.581Z,7.20
2022-08-31T06:17:42.530Z,7.00
2022-08-31T06:18:42.550Z,7.80
2022-08-31T06:19:42.563Z,7.00
2022-08-31T06:20:42.575Z,8.40
2022-08-31T06:21:49.931Z,8.40
2022-08-31T06:22:42.611Z,5.70
2022-08-31T06:23:42.621Z,6.90
2022-08-31T06:24:42.636Z,7.60
2022-08-31T06:25:42.653Z,8.50
2022-08-31T06:26:42.665Z,6.20
2022-08-31T06:27:42.679Z,7.30
2022-08-31T06:28:42.693Z,7.10
2022-08-31T06:29:42.713Z,8.20
2022-08-31T06:30:54.735Z,6.40
2022-08-31T06:31:42.853Z,6.40
2022-08-31T06:32:42.750Z,5.90
2022-08-31T06:33:42.770Z,7.10
2022-08-31T06:34:42.799Z,6.30
2022-08-31T06:35:42.798Z,8.80
2022-08-31T06:36:42.850Z,7.40
2022-08-31T06:37:42.829Z,7.60
2022-08-31T06:38:42.853Z,6.80
2022-08-31T06:39:44.405Z,7.40
2022-08-31T06:40:42.940Z,6.60
2022-08-31T06:41:42.885Z,6.80
2022-08-31T06:42:42.898Z,7.30
2022-08-31T06:43:42.921Z,8.10
2022-08-31T06:44:42.932Z,9.40
2022-08-31T06:45:42.949Z,54.60
2022-08-31T06:46:46.547Z,10.00
2022-08-31T06:47:42.973Z,7.20
2022-08-31T06:48:42.991Z,9.50
2022-08-31T06:49:43.002Z,6.80
2022-08-31T06:50:43.022Z,6.00
2022-08-31T06:51:43.029Z,6.60
2022-08-31T06:52:43.050Z,7.00
2022-08-31T06:53:43.062Z,6.60
2022-08-31T06:54:43.076Z,7.50
2022-08-31T06:55:43.099Z,6.20
2022-08-31T06:56:43.102Z,5.50
2022-08-31T06:57:43.118Z,7.70
2022-08-31T06:58:43.133Z,5.90
2022-08-31T06:59:43.147Z,5.50
2022-08-31T07:00:43.161Z,5.80
2022-08-31T07:01:43.419Z,6.30
2022-08-31T07:02:43.234Z,6.70
2022-08-31T07:03:43.207Z,6.80
2022-08-31T07:04:43.221Z,5.00
2022-08-31T07:05:43.244Z,6.50
2022-08-31T07:06:43.252Z,6.30
2022-08-31T07:07:43.266Z,6.00
2022-08-31T07:08:43.283Z,7.70
2022-08-31T07:09:43.307Z,5.60
2022-08-31T07:10:43.313Z,5.90
2022-08-31T07:11:44.759Z,4.60
2022-08-31T07:12:43.337Z,5.20
2022-08-31T07:13:43.357Z,6.20
2022-08-31T07:14:43.467Z,4.70
2022-08-31T07:15:43.388Z,4.40
2022-08-31T07:16:43.525Z,5.40
2022-08-31T07:17:43.416Z,6.80
2022-08-31T07:18:43.437Z,4.80
2022-08-31T07:19:44.902Z,6.00
2022-08-31T07:20:43.461Z,5.30
2022-08-31T07:21:43.478Z,5.10
2022-08-31T07:22:43.496Z,6.00
2022-08-31T07:23:43.509Z,8.00
2022-08-31T07:24:43.524Z,34.10
2022-08-31T07:25:43.534Z,15.70
2022-08-31T07:26:43.550Z,11.50
2022-08-31T07:27:43.569Z,7.50
2022-08-31T07:28:43.581Z,6.60
2022-08-31T07:29:43.604Z,7.70
2022-08-31T07:30:43.633Z,6.80
2022-08-31T07:31:43.633Z,8.10
2022-08-31T07:32:43.644Z,6.40
2022-08-31T07:33:43.654Z,5.90
2022-08-31T07:34:43.675Z,7.50
2022-08-31T07:35:43.684Z,17.60
2022-08-31T07:36:43.700Z,130.80
2022-08-31T07:37:43.715Z,228.80
2022-08-31T07:38:43.731Z,318.80
2022-08-31T07:39:43.747Z,163.60
2022-08-31T07:40:43.846Z,117.20
2022-08-31T07:41:43.780Z,31.70
2022-08-31T07:42:43.894Z,26.80
2022-08-31T07:43:43.812Z,15.10
2022-08-31T07:44:53.352Z,8.20
2022-08-31T07:45:43.883Z,61.90
2022-08-31T07:46:43.851Z,67.80
2022-08-31T07:47:43.866Z,9.70
2022-08-31T07:48:43.882Z,9.80
2022-08-31T07:49:43.900Z,9.00
2022-08-31T07:50:43.911Z,10.30
2022-08-31T07:51:43.926Z,8.80
2022-08-31T07:52:43.943Z,7.00
2022-08-31T07:53:43.959Z,9.10
2022-08-31T07:54:43.970Z,7.80
2022-08-31T07:55:43.990Z,9.20
2022-08-31T07:56:43.999Z,10.80
2022-08-31T07:57:44.048Z,9.00
2022-08-31T07:58:44.036Z,11.30
2022-08-31T07:59:44.105Z,10.50
2022-08-31T08:00:44.059Z,8.90
2022-08-31T08:01:44.115Z,8.60
2022-08-31T08:02:44.114Z,9.10
2022-08-31T08:03:44.114Z,8.00
2022-08-31T08:04:44.127Z,9.00
2022-08-31T08:05:44.138Z,9.20
2022-08-31T08:06:44.150Z,9.40
2022-08-31T08:07:44.166Z,8.70
2022-08-31T08:08:44.177Z,8.80
2022-08-31T08:09:44.197Z,7.60
2022-08-31T08:10:46.637Z,7.10
2022-08-31T08:11:44.224Z,7.90
2022-08-31T08:12:44.241Z,8.30
2022-08-31T08:13:44.259Z,8.10
2022-08-31T08:14:44.286Z,7.40
2022-08-31T08:15:44.380Z,7.70
2022-08-31T08:16:44.357Z,7.30
2022-08-31T08:17:44.312Z,7.00
2022-08-31T08:18:44.329Z,5.70
2022-08-31T08:19:44.346Z,6.60
2022-08-31T08:20:44.361Z,7.80
2022-08-31T08:21:44.375Z,9.10
2022-08-31T08:22:55.594Z,6.80
2022-08-31T08:23:44.402Z,9.70
2022-08-31T08:24:44.418Z,6.90
2022-08-31T08:25:44.436Z,7.10
2022-08-31T08:26:44.449Z,6.40
2022-08-31T08:27:44.462Z,6.30
2022-08-31T08:28:44.478Z,6.50
2022-08-31T08:29:44.495Z,6.10
2022-08-31T08:30:44.520Z,9.10
2022-08-31T08:31:44.602Z,6.30
2022-08-31T08:32:44.541Z,6.20
2022-08-31T08:33:44.561Z,9.00
2022-08-31T08:34:44.570Z,5.90
2022-08-31T08:35:44.587Z,6.60
2022-08-31T08:36:44.601Z,6.60
2022-08-31T08:37:57.705Z,6.40
2022-08-31T08:38:44.632Z,6.70
2022-08-31T08:39:44.648Z,6.70
2022-08-31T08:40:44.783Z,6.80
2022-08-31T08:41:44.677Z,7.50
2022-08-31T08:42:44.692Z,6.90
2022-08-31T08:43:48.001Z,8.00
2022-08-31T08:44:44.723Z,8.00
2022-08-31T08:45:44.777Z,7.40
2022-08-31T08:46:44.801Z,5.50
2022-08-31T08:47:44.844Z,5.40
2022-08-31T08:48:44.782Z,5.50
2022-08-31T08:49:44.795Z,7.80
2022-08-31T08:50:44.866Z,6.80
2022-08-31T08:51:44.827Z,5.60
2022-08-31T08:52:44.853Z,6.30
2022-08-31T08:53:44.860Z,6.00
2022-08-31T08:54:44.872Z,7.10
2022-08-31T08:55:44.885Z,7.30
2022-08-31T08:56:44.907Z,7.60
2022-08-31T08:57:44.924Z,6.00
2022-08-31T08:58:44.936Z,8.50
2022-08-31T08:59:44.948Z,7.00
2022-08-31T09:00:44.966Z,6.90
2022-08-31T09:01:45.067Z,8.80
2022-08-31T09:02:45.052Z,16.90
2022-08-31T09:03:45.013Z,12.40
2022-08-31T09:04:45.025Z,8.80
2022-08-31T09:05:45.043Z,49.70
2022-08-31T09:06:46.116Z,23.40
2022-08-31T09:07:45.079Z,8.90
2022-08-31T09:08:45.095Z,9.80
2022-08-31T09:09:45.122Z,7.70
2022-08-31T09:10:45.125Z,6.90
2022-08-31T09:11:45.138Z,8.90
2022-08-31T09:12:45.166Z,6.80
2022-08-31T09:13:45.167Z,7.00
2022-08-31T09:14:45.187Z,7.10
2022-08-31T09:15:45.258Z,7.80
2022-08-31T09:16:45.222Z,6.70
2022-08-31T09:17:45.236Z,7.10
2022-08-31T09:18:45.253Z,7.70
2022-08-31T09:19:45.271Z,8.20
2022-08-31T09:20:45.678Z,7.40
2022-08-31T09:21:45.294Z,7.60
2022-08-31T09:22:45.316Z,6.80
2022-08-31T09:23:45.327Z,7.90
2022-08-31T09:24:45.342Z,8.00
2022-08-31T09:25:45.361Z,6.10
2022-08-31T09:26:45.379Z,6.40
2022-08-31T09:27:45.396Z,6.00
2022-08-31T09:28:45.408Z,7.90
2022-08-31T09:29:45.425Z,6.80
2022-08-31T09:30:45.680Z,6.70
2022-08-31T09:31:45.600Z,6.40
2022-08-31T09:32:45.466Z,6.10
2022-08-31T09:33:45.488Z,5.60
2022-08-31T09:34:45.498Z,6.00
2022-08-31T09:35:45.521Z,5.90
2022-08-31T09:36:45.534Z,7.70
2022-08-31T09:37:45.564Z,9.60
2022-08-31T09:38:45.565Z,6.40
2022-08-31T09:39:45.580Z,7.00
2022-08-31T09:40:45.651Z,7.30
2022-08-31T09:41:45.610Z,6.90
2022-08-31T09:42:45.630Z,7.60
2022-08-31T09:43:45.642Z,5.90
2022-08-31T09:44:45.660Z,7.20
2022-08-31T09:45:45.712Z,7.60
2022-08-31T09:46:45.692Z,6.30
2022-08-31T09:47:45.714Z,5.70
2022-08-31T09:48:45.731Z,7.10
2022-08-31T09:49:45.743Z,6.80
2022-08-31T09:50:45.757Z,5.80
2022-08-31T09:51:45.780Z,6.30
2022-08-31T09:52:45.789Z,6.60
2022-08-31T09:53:45.812Z,7.90
2022-08-31T09:54:47.329Z,4.80
2022-08-31T09:55:45.839Z,6.50
2022-08-31T09:56:45.857Z,5.40
2022-08-31T09:57:45.873Z,6.40
2022-08-31T09:58:45.891Z,6.20
2022-08-31T09:59:45.916Z,6.30
2022-08-31T10:00:45.922Z,5.50
2022-08-31T10:01:46.119Z,5.90
2022-08-31T10:02:45.957Z,7.70
2022-08-31T10:03:45.971Z,6.90
2022-08-31T10:04:46.051Z,6.40
2022-08-31T10:05:46.008Z,5.90
2022-08-31T10:06:46.020Z,5.30
2022-08-31T10:07:46.037Z,5.50
2022-08-31T10:08:46.056Z,7.30
2022-08-31T10:09:46.075Z,5.90
2022-08-31T10:10:46.089Z,6.20
2022-08-31T10:11:46.110Z,5.40
2022-08-31T10:12:46.125Z,6.50
2022-08-31T10:13:46.142Z,6.50
2022-08-31T10:14:46.157Z,4.90
2022-08-31T10:15:46.219Z,4.80
2022-08-31T10:16:46.194Z,5.80
2022-08-31T10:17:46.208Z,5.30
2022-08-31T10:18:46.223Z,5.90
2022-08-31T10:19:46.237Z,5.30
2022-08-31T10:20:46.261Z,6.00
2022-08-31T10:21:46.271Z,5.30
2022-08-31T10:22:46.293Z,5.50
2022-08-31T10:23:46.312Z,5.40
2022-08-31T10:24:46.357Z,4.70
2022-08-31T10:25:46.341Z,5.30
2022-08-31T10:26:46.358Z,7.50
2022-08-31T10:27:46.376Z,4.50
2022-08-31T10:28:46.583Z,4.50
2022-08-31T10:29:46.410Z,4.80
2022-08-31T10:30:46.499Z,4.80
2022-08-31T10:31:48.500Z,6.20
2022-08-31T10:32:46.460Z,4.90
2022-08-31T10:33:46.481Z,5.70
2022-08-31T10:34:46.499Z,4.30
2022-08-31T10:35:46.517Z,4.50
2022-08-31T10:36:46.536Z,5.50
2022-08-31T10:37:46.555Z,5.50
2022-08-31T10:38:46.571Z,4.60
2022-08-31T10:39:46.589Z,5.30
2022-08-31T10:40:46.713Z,6.60
2022-08-31T10:41:46.625Z,8.10
2022-08-31T10:42:46.641Z,4.70
2022-08-31T10:43:46.764Z,6.60
2022-08-31T10:44:49.909Z,5.10
2022-08-31T10:45:46.744Z,5.90
2022-08-31T10:46:46.773Z,5.20
2022-08-31T10:47:46.739Z,5.90
2022-08-31T10:48:47.285Z,5.00
2022-08-31T10:49:46.776Z,5.70
2022-08-31T10:50:46.793Z,4.80
2022-08-31T10:51:46.813Z,4.70
2022-08-31T10:52:46.826Z,5.00
2022-08-31T10:53:46.846Z,5.60
2022-08-31T10:54:46.866Z,5.60
2022-08-31T10:55:46.883Z,5.20
2022-08-31T10:56:46.898Z,5.50
2022-08-31T10:57:46.921Z,5.90
2022-08-31T10:58:46.947Z,5.80
2022-08-31T10:59:46.964Z,5.10
2022-08-31T11:00:46.984Z,5.90
2022-08-31T11:01:47.049Z,4.70
2022-08-31T11:02:47.014Z,4.60
2022-08-31T11:03:47.036Z,5.20
2022-08-31T11:04:47.155Z,5.00
2022-08-31T11:05:50.574Z,5.80
2022-08-31T11:06:47.091Z,6.80
2022-08-31T11:07:47.108Z,5.10
2022-08-31T11:08:47.126Z,5.00
2022-08-31T11:09:47.145Z,4.70
2022-08-31T11:10:47.167Z,5.10
2022-08-31T11:11:47.180Z,4.80
2022-08-31T11:12:47.198Z,5.00
2022-08-31T11:13:49.298Z,6.50
2022-08-31T11:14:47.239Z,5.10
2022-08-31T11:15:47.311Z,4.90
2022-08-31T11:16:47.275Z,5.40
2022-08-31T11:17:47.301Z,4.50
2022-08-31T11:18:47.315Z,6.90
2022-08-31T11:19:47.331Z,7.70
2022-08-31T11:20:47.351Z,5.00
2022-08-31T11:21:47.366Z,4.50
2022-08-31T11:22:47.389Z,6.50
2022-08-31T11:23:47.407Z,4.70
2022-08-31T11:24:47.420Z,6.30
2022-08-31T11:25:47.449Z,5.20
2022-08-31T11:26:47.460Z,5.80
2022-08-31T11:27:47.479Z,5.00
2022-08-31T11:28:47.497Z,5.60
2022-08-31T11:29:47.516Z,4.80
2022-08-31T11:30:50.876Z,4.60
2022-08-31T11:31:47.593Z,5.20
2022-08-31T11:32:47.581Z,5.00
2022-08-31T11:34:14.173Z,5.70
2022-08-31T11:34:47.619Z,4.50
2022-08-31T11:35:47.630Z,5.00
2022-08-31T11:36:47.654Z,5.80
2022-08-31T11:37:47.673Z,8.00
2022-08-31T11:38:47.692Z,5.10
2022-08-31T11:39:47.708Z,6.10
2022-08-31T11:40:47.839Z,6.50
2022-08-31T11:41:47.750Z,4.80
2022-08-31T11:42:47.769Z,5.10
2022-08-31T11:43:47.785Z,5.20
2022-08-31T11:44:47.803Z,5.00
2022-08-31T11:45:47.864Z,4.50
2022-08-31T11:46:47.845Z,5.40
2022-08-31T11:47:47.964Z,6.60
2022-08-31T11:48:47.887Z,5.20
2022-08-31T11:49:47.916Z,5.30
2022-08-31T11:50:47.923Z,4.90
2022-08-31T11:51:47.942Z,4.60
2022-08-31T11:52:47.963Z,5.30
2022-08-31T11:53:47.984Z,6.60
2022-08-31T11:54:47.997Z,4.90
2022-08-31T11:55:48.020Z,5.00
2022-08-31T11:56:48.039Z,5.60
2022-08-31T11:57:48.058Z,4.70
2022-08-31T11:58:48.072Z,7.20
2022-08-31T11:59:48.096Z,6.60
2022-08-31T12:00:52.189Z,4.50
2022-08-31T12:01:48.135Z,4.60
2022-08-31T12:02:48.334Z,4.50
2022-08-31T12:03:48.175Z,5.60
2022-08-31T12:04:48.194Z,5.90
2022-08-31T12:05:48.299Z,5.20
2022-08-31T12:06:48.270Z,4.90
2022-08-31T12:07:48.266Z,4.70
2022-08-31T12:08:48.270Z,4.90
2022-08-31T12:09:48.293Z,4.70
2022-08-31T12:10:48.305Z,5.10
2022-08-31T12:11:48.346Z,5.10
2022-08-31T12:12:48.351Z,6.70
2022-08-31T12:13:48.367Z,6.30
2022-08-31T12:14:48.386Z,6.50
2022-08-31T12:15:48.522Z,5.00
2022-08-31T12:16:48.423Z,5.00
2022-08-31T12:17:48.442Z,5.20
2022-08-31T12:18:48.462Z,4.90
2022-08-31T12:19:48.482Z,5.50
2022-08-31T12:20:48.510Z,4.90
2022-08-31T12:21:48.523Z,5.20
2022-08-31T12:22:48.542Z,5.70
2022-08-31T12:23:48.564Z,5.70
2022-08-31T12:24:49.414Z,4.90
2022-08-31T12:25:48.600Z,7.10
2022-08-31T12:26:48.623Z,5.10
2022-08-31T12:27:48.642Z,5.70
2022-08-31T12:28:48.660Z,5.50
2022-08-31T12:29:48.684Z,6.60
2022-08-31T12:30:48.819Z,8.60
2022-08-31T12:31:48.717Z,6.10
2022-08-31T12:32:48.740Z,5.40
2022-08-31T12:33:48.760Z,5.10
2022-08-31T12:34:48.779Z,5.00
2022-08-31T12:35:48.802Z,5.90
2022-08-31T12:36:48.939Z,5.60
2022-08-31T12:37:48.841Z,5.90
2022-08-31T12:38:48.860Z,5.50
2022-08-31T12:39:48.879Z,7.30
2022-08-31T12:40:49.017Z,5.10
2022-08-31T12:41:48.920Z,5.20
2022-08-31T12:42:48.940Z,5.10
2022-08-31T12:43:48.976Z,6.80
2022-08-31T12:44:48.980Z,5.80
2022-08-31T12:45:49.049Z,6.40
2022-08-31T12:46:49.115Z,4.90
2022-08-31T12:47:49.039Z,6.00
2022-08-31T12:48:49.161Z,5.80
2022-08-31T12:49:49.079Z,5.70
2022-08-31T12:50:49.102Z,5.80
2022-08-31T12:51:49.125Z,5.40
2022-08-31T12:52:49.144Z,6.60
2022-08-31T12:53:49.159Z,5.40
2022-08-31T12:54:49.194Z,5.00
2022-08-31T12:55:49.323Z,5.60
2022-08-31T12:56:49.219Z,6.30
2022-08-31T12:57:49.238Z,5.00
2022-08-31T12:58:49.265Z,5.80
2022-08-31T13:00:00.452Z,6.30
2022-08-31T13:00:49.305Z,5.20
2022-08-31T13:01:49.451Z,5.20
2022-08-31T13:02:49.571Z,5.10
2022-08-31T13:03:54.024Z,4.60
2022-08-31T13:04:49.386Z,4.60
2022-08-31T13:05:49.408Z,6.50
2022-08-31T13:06:49.430Z,4.80
2022-08-31T13:07:49.450Z,6.60
2022-08-31T13:08:49.490Z,7.10
2022-08-31T13:09:49.486Z,6.00
2022-08-31T13:10:49.506Z,4.70
2022-08-31T13:11:49.528Z,5.50
2022-08-31T13:12:49.547Z,4.80
2022-08-31T13:13:49.564Z,5.20
2022-08-31T13:14:49.589Z,6.00
2022-08-31T13:15:49.643Z,5.40
2022-08-31T13:16:49.675Z,7.30
2022-08-31T13:17:49.645Z,6.50